Time;durP1;ratioP1;P1;durP2;ratioP2;P2;SDS_P1;SDS_P2;PMS_P1;PMS_P2;Temp;Humidity;BMP_temperature;BMP_pressure;BME280_temperature;BME280_humidity;BME280_pressure;Samples;Min_cycle;Max_cycle;Signal;HPM_P1;HPM_P2
2022/02/19 00:01:36;;;;;;;6.95;0.17;;;6.00;99.90;;;;;;5016021;28;20049;-74
2022/02/19 00:04:02;;;;;;;4.38;0.15;;;6.10;99.90;;;;;;5015730;28;20502;-72
2022/02/19 00:06:28;;;;;;;5.70;0.10;;;6.00;99.90;;;;;;4998528;28;20017;-71
2022/02/19 00:08:53;;;;;;;6.13;0.10;;;6.00;99.90;;;;;;5016086;28;20040;-71
2022/02/19 00:11:19;;;;;;;10.48;1.35;;;6.00;99.90;;;;;;5016100;28;20022;-71
2022/02/19 00:13:45;;;;;;;4.30;1.02;;;5.90;99.90;;;;;;5015944;28;20026;-71
2022/02/19 00:16:10;;;;;;;6.57;1.40;;;5.90;99.90;;;;;;5015593;28;20018;-71
2022/02/19 00:18:36;;;;;;;5.03;0.30;;;5.90;99.90;;;;;;5015073;28;20105;-71
2022/02/19 00:21:03;;;;;;;4.85;0.00;;;5.90;99.90;;;;;;5016224;28;20084;-71
2022/02/19 00:23:29;;;;;;;7.90;0.30;;;5.90;99.90;;;;;;4998134;28;20022;-72
2022/02/19 00:25:57;;;;;;;19.77;1.20;;;5.80;99.90;;;;;;4998250;28;20026;-72
2022/02/19 00:28:23;;;;;;;5.35;0.20;;;5.80;99.90;;;;;;4998216;28;20072;-72
2022/02/19 00:30:49;;;;;;;8.65;0.32;;;5.80;99.90;;;;;;5015779;28;20026;-72
2022/02/19 00:33:14;;;;;;;8.32;0.57;;;5.80;99.90;;;;;;4997742;28;20494;-73
2022/02/19 00:35:40;;;;;;;3.97;0.15;;;5.80;99.90;;;;;;4997937;28;20026;-71
2022/02/19 00:38:06;;;;;;;5.88;0.10;;;5.90;99.90;;;;;;5015614;28;20080;-73
2022/02/19 00:40:32;;;;;;;6.82;0.00;;;5.90;99.90;;;;;;5015651;28;20037;-72
2022/02/19 00:42:58;;;;;;;4.68;0.03;;;5.90;99.90;;;;;;4997644;28;20034;-71
2022/02/19 00:45:23;;;;;;;2.70;0.30;;;5.90;99.90;;;;;;5015748;28;20018;-72
2022/02/19 00:47:49;;;;;;;2.58;0.15;;;5.90;99.90;;;;;;5015880;28;20025;-72
2022/02/19 00:50:14;;;;;;;7.68;0.00;;;5.90;99.90;;;;;;5015432;28;20026;-72
2022/02/19 00:52:40;;;;;;;8.85;0.88;;;5.90;99.90;;;;;;5015159;28;20479;-73
2022/02/19 00:55:06;;;;;;;15.85;0.95;;;5.90;99.90;;;;;;5015515;28;20032;-72
2022/02/19 00:57:35;;;;;;;2.63;0.55;;;6.00;99.90;;;;;;5015462;28;20525;-72
2022/02/19 01:00:01;;;;;;;1.95;0.25;;;5.90;99.90;;;;;;5015298;28;20094;-72
2022/02/19 01:02:26;;;;;;;12.60;0.20;;;6.00;99.90;;;;;;5015436;28;20062;-73
2022/02/19 01:04:52;;;;;;;8.85;0.52;;;5.90;99.90;;;;;;5014981;28;20033;-71
2022/02/19 01:07:17;;;;;;;8.82;0.30;;;5.90;99.90;;;;;;5015000;28;20025;-72
2022/02/19 01:09:43;;;;;;;7.63;0.80;;;5.90;99.90;;;;;;5015557;28;20360;-72
2022/02/19 01:12:09;;;;;;;5.10;0.10;;;5.80;99.90;;;;;;5014333;28;20030;-72
2022/02/19 01:14:34;;;;;;;6.68;0.10;;;5.80;99.90;;;;;;4997300;28;20122;-72
2022/02/19 01:17:00;;;;;;;13.38;1.38;;;5.80;99.90;;;;;;5014826;28;20026;-71
2022/02/19 01:19:25;;;;;;;4.50;0.40;;;5.80;99.90;;;;;;5014869;28;20407;-71
2022/02/19 01:21:51;;;;;;;7.63;0.85;;;5.80;99.90;;;;;;5015093;28;20491;-72
2022/02/19 01:24:17;;;;;;;6.82;0.43;;;5.80;99.90;;;;;;5014862;28;20022;-72
2022/02/19 01:26:42;;;;;;;10.52;1.10;;;5.80;99.90;;;;;;5014426;28;20025;-72
2022/02/19 01:29:08;;;;;;;6.63;0.47;;;5.70;99.90;;;;;;5014216;28;20022;-72
2022/02/19 01:31:34;;;;;;;2.83;0.25;;;5.70;99.90;;;;;;4996994;28;20030;-72
2022/02/19 01:33:59;;;;;;;3.88;0.00;;;5.70;99.90;;;;;;5014493;28;20403;-72
2022/02/19 01:36:25;;;;;;;10.88;0.85;;;5.70;99.90;;;;;;5014382;28;20021;-72
2022/02/19 01:38:50;;;;;;;9.63;0.20;;;5.80;99.90;;;;;;5014699;28;20025;-71
2022/02/19 01:41:16;;;;;;;10.38;0.52;;;5.70;99.90;;;;;;5014247;28;20101;-72
2022/02/19 01:43:42;;;;;;;9.13;0.38;;;5.70;99.90;;;;;;4996382;28;20030;-72
2022/02/19 01:46:07;;;;;;;3.53;0.10;;;5.70;99.90;;;;;;5014874;28;20041;-72
2022/02/19 01:48:33;;;;;;;9.77;0.50;;;5.70;99.90;;;;;;5014307;28;20033;-72
2022/02/19 01:50:59;;;;;;;4.78;0.00;;;5.70;99.90;;;;;;5014864;28;20033;-72
2022/02/19 01:53:25;;;;;;;7.85;0.17;;;5.70;99.90;;;;;;5014453;28;20468;-72
2022/02/19 01:55:53;;;;;;;5.57;0.90;;;5.70;99.90;;;;;;5014117;28;20034;-72
2022/02/19 01:58:19;;;;;;;7.57;0.73;;;5.70;99.90;;;;;;5014109;28;20033;-72
2022/02/19 02:00:45;;;;;;;4.80;0.10;;;5.70;99.90;;;;;;5014425;28;20157;-72
2022/02/19 02:03:12;;;;;;;11.45;0.65;;;5.70;99.90;;;;;;5013920;28;20061;-73
2022/02/19 02:05:38;;;;;;;8.77;1.13;;;5.80;99.90;;;;;;5014045;28;20025;-73
2022/02/19 02:08:07;;;;;;;0.43;0.03;;;5.80;99.90;;;;;;5014278;28;20018;-73
2022/02/19 02:10:34;;;;;;;3.85;0.20;;;5.70;99.90;;;;;;4996267;28;20026;-72
2022/02/19 02:13:01;;;;;;;2.90;0.20;;;5.80;99.90;;;;;;4996302;28;20053;-72
2022/02/19 02:15:31;;;;;;;4.30;0.57;;;5.80;99.90;;;;;;5014178;28;20022;-73
2022/02/19 02:17:57;;;;;;;6.88;0.30;;;5.70;99.90;;;;;;5013984;28;20068;-72
2022/02/19 02:20:24;;;;;;;6.72;0.10;;;5.80;99.90;;;;;;5013846;28;20026;-72
2022/02/19 02:22:49;;;;;;;8.40;0.55;;;5.80;99.90;;;;;;5013911;28;20057;-72
2022/02/19 02:25:16;;;;;;;5.80;0.28;;;5.80;99.90;;;;;;4996169;28;20506;-72
2022/02/19 02:27:42;;;;;;;1.52;0.13;;;5.80;99.90;;;;;;5013647;28;20419;-72
2022/02/19 02:30:08;;;;;;;10.70;0.20;;;5.70;99.90;;;;;;5013945;28;20029;-73
2022/02/19 02:32:34;;;;;;;6.78;0.30;;;5.70;99.90;;;;;;5014579;28;20088;-72
2022/02/19 02:34:59;;;;;;;6.25;0.50;;;5.70;99.90;;;;;;4996017;28;20026;-72
2022/02/19 02:37:25;;;;;;;4.07;0.10;;;7.40;99.90;;;;;;4996069;28;20053;-74
2022/02/19 02:39:52;;;;;;;8.45;0.28;;;5.70;99.90;;;;;;4995092;28;20073;-74
2022/02/19 02:42:19;;;;;;;2.65;0.40;;;5.70;99.90;;;;;;4995873;28;20128;-74
2022/02/19 02:44:45;;;;;;;10.45;0.40;;;5.70;99.90;;;;;;5013321;28;20108;-74
2022/02/19 02:47:11;;;;;;;4.90;0.10;;;5.70;99.90;;;;;;5013469;28;20030;-74
2022/02/19 02:49:37;;;;;;;5.75;0.00;;;5.70;99.90;;;;;;4995990;28;20025;-74
2022/02/19 02:52:04;;;;;;;2.10;0.52;;;5.70;99.90;;;;;;5014067;28;20460;-74
2022/02/19 02:54:30;;;;;;;7.78;0.75;;;5.70;99.90;;;;;;4995898;28;20026;-74
2022/02/19 02:56:56;;;;;;;5.82;0.30;;;5.70;99.90;;;;;;5013755;28;20113;-75
2022/02/19 02:59:21;;;;;;;9.40;0.17;;;5.70;99.90;;;;;;4996018;28;20431;-75
2022/02/19 03:01:47;;;;;;;7.60;0.10;;;5.70;99.90;;;;;;5013600;28;20022;-75
2022/02/19 03:04:12;;;;;;;5.10;0.10;;;5.70;99.90;;;;;;5013559;28;20471;-75
2022/02/19 03:06:38;;;;;;;9.55;0.20;;;5.70;99.90;;;;;;5013344;28;20475;-74
2022/02/19 03:09:03;;;;;;;3.55;0.50;;;5.70;99.90;;;;;;4995781;28;20022;-74
2022/02/19 03:11:29;;;;;;;11.63;0.68;;;5.60;99.90;;;;;;5013471;28;20034;-74
2022/02/19 03:13:54;;;;;;;8.15;0.25;;;5.70;99.90;;;;;;5013617;28;20018;-74
2022/02/19 03:16:20;;;;;;;4.82;0.65;;;5.70;99.90;;;;;;5013251;28;20026;-74
2022/02/19 03:18:46;;;;;;;11.80;0.25;;;5.70;99.90;;;;;;5012708;28;20018;-74
2022/02/19 03:21:12;;;;;;;4.93;0.10;;;5.60;99.90;;;;;;4995800;28;20037;-75
2022/02/19 03:23:37;;;;;;;8.75;0.03;;;5.60;99.90;;;;;;4995924;28;20061;-74
2022/02/19 03:26:07;;;;;;;6.45;0.55;;;5.60;99.90;;;;;;5013725;28;20022;-74
2022/02/19 03:28:34;;;;;;;11.82;0.52;;;5.60;99.90;;;;;;5013312;28;20025;-74
2022/02/19 03:31:00;;;;;;;8.60;0.75;;;5.60;99.90;;;;;;5013052;28;20099;-74
2022/02/19 03:33:25;;;;;;;7.78;1.75;;;5.60;99.90;;;;;;5012479;28;20030;-74
2022/02/19 03:35:51;;;;;;;4.15;0.50;;;5.60;99.90;;;;;;4995636;28;20037;-74
2022/02/19 03:38:16;;;;;;;6.82;0.55;;;5.70;99.90;;;;;;4995679;28;20026;-74
2022/02/19 03:40:42;;;;;;;6.07;0.20;;;5.70;99.90;;;;;;5013283;28;20049;-74
2022/02/19 03:43:08;;;;;;;2.88;0.20;;;5.70;99.90;;;;;;5012910;28;20022;-74
2022/02/19 03:45:35;;;;;;;7.07;0.35;;;5.70;99.90;;;;;;5012972;28;20025;-75
2022/02/19 03:48:01;;;;;;;11.38;1.20;;;5.70;99.90;;;;;;5013106;28;20472;-75
2022/02/19 03:50:27;;;;;;;6.20;0.43;;;5.60;99.90;;;;;;5013086;28;20524;-75
2022/02/19 03:52:52;;;;;;;5.82;0.45;;;5.70;99.90;;;;;;5016175;28;20048;-75
2022/02/19 03:55:18;;;;;;;5.20;0.32;;;5.70;99.90;;;;;;5016606;28;20037;-74
2022/02/19 03:57:44;;;;;;;8.25;0.20;;;5.60;99.90;;;;;;4998913;28;20033;-74
2022/02/19 04:00:14;;;;;;;8.07;0.43;;;5.60;99.90;;;;;;4998982;28;20014;-74
2022/02/19 04:02:43;;;;;;;5.28;0.13;;;5.60;99.90;;;;;;5016340;28;20033;-73
2022/02/19 04:05:09;;;;;;;;;;;5.60;99.90;;;;;;4998806;28;20026;-74
2022/02/19 04:07:34;;;;;;;11.50;0.60;;;5.60;99.90;;;;;;5016139;28;19943;-74
2022/02/19 04:10:00;;;;;;;7.95;0.10;;;5.60;99.90;;;;;;4998662;28;20499;-74
2022/02/19 04:12:26;;;;;;;4.68;0.15;;;5.60;99.90;;;;;;5016439;28;20022;-74
2022/02/19 04:14:52;;;;;;;8.02;0.30;;;5.60;99.90;;;;;;5016073;28;20109;-74
2022/02/19 04:17:17;;;;;;;6.47;0.45;;;5.60;99.90;;;;;;4998503;28;20450;-74
2022/02/19 04:19:43;;;;;;;6.72;0.85;;;5.60;99.90;;;;;;4998244;28;20026;-74
2022/02/19 04:22:09;;;;;;;5.93;0.73;;;5.60;99.90;;;;;;5016367;28;20018;-74
2022/02/19 04:24:34;;;;;;;6.30;0.70;;;5.60;99.90;;;;;;5015830;28;20033;-74
2022/02/19 04:27:00;;;;;;;6.78;0.57;;;5.60;99.90;;;;;;5016049;28;20037;-74
2022/02/19 04:29:26;;;;;;;12.88;0.47;;;5.70;99.90;;;;;;4998425;28;20050;-74
2022/02/19 04:31:54;;;;;;;10.38;0.47;;;5.60;99.90;;;;;;5015594;28;20076;-73
2022/02/19 04:34:24;;;;;;;3.65;0.90;;;5.60;99.90;;;;;;4998046;28;20029;-74
2022/02/19 04:36:50;;;;;;;10.90;0.10;;;5.60;99.90;;;;;;5015955;28;20028;-74
2022/02/19 04:39:17;;;;;;;10.35;1.15;;;5.60;99.90;;;;;;5016001;28;20101;-75
2022/02/19 04:41:42;;;;;;;4.85;0.63;;;5.60;99.90;;;;;;5015761;28;20036;-74
2022/02/19 04:44:08;;;;;;;4.20;0.08;;;5.60;99.90;;;;;;5015611;28;20030;-74
2022/02/19 04:46:34;;;;;;;5.22;0.13;;;5.60;99.90;;;;;;5015295;28;20030;-74
2022/02/19 04:48:59;;;;;;;4.03;1.10;;;5.60;99.90;;;;;;5015519;28;20136;-74
2022/02/19 04:51:25;;;;;;;10.38;0.40;;;5.60;99.90;;;;;;4997913;28;20022;-74
2022/02/19 04:53:50;;;;;;;1.60;0.22;;;5.60;99.90;;;;;;5016312;28;20421;-74
2022/02/19 04:56:16;;;;;;;7.50;0.40;;;5.70;99.90;;;;;;5015033;28;20053;-75
2022/02/19 04:58:41;;;;;;;3.75;0.10;;;5.70;99.90;;;;;;5015463;28;20026;-73
2022/02/19 05:01:07;;;;;;;4.38;0.30;;;5.70;99.90;;;;;;5014724;28;20476;-74
2022/02/19 05:03:32;;;;;;;11.27;1.05;;;5.60;99.90;;;;;;4996495;28;20069;-74
2022/02/19 05:05:58;;;;;;;6.70;0.10;;;5.60;99.90;;;;;;4997393;28;20030;-74
2022/02/19 05:08:23;;;;;;;6.00;0.65;;;5.50;99.90;;;;;;4997518;28;20026;-73
2022/02/19 05:10:49;;;;;;;5.68;0.08;;;5.60;99.90;;;;;;5015081;28;20053;-73
2022/02/19 05:13:15;;;;;;;4.32;0.65;;;5.50;99.90;;;;;;5014916;28;20018;-74
2022/02/19 05:15:41;;;;;;;18.95;0.30;;;5.50;99.90;;;;;;5015531;28;20029;-74
2022/02/19 05:18:08;;;;;;;6.57;0.50;;;5.40;99.90;;;;;;5015289;28;20030;-75
2022/02/19 05:20:34;;;;;;;8.57;0.45;;;5.40;99.90;;;;;;5015076;28;20388;-74
2022/02/19 05:22:59;;;;;;;7.40;0.17;;;5.40;99.90;;;;;;5014864;28;20026;-73
2022/02/19 05:25:25;;;;;;;5.32;0.47;;;5.40;99.90;;;;;;5014757;28;20028;-73
2022/02/19 05:27:50;;;;;;;4.20;0.00;;;5.40;99.90;;;;;;5014703;28;20442;-74
2022/02/19 05:30:16;;;;;;;5.68;0.28;;;5.40;99.90;;;;;;4997134;28;20018;-74
2022/02/19 05:32:41;;;;;;;13.48;0.75;;;5.50;99.90;;;;;;5014596;28;20676;-75
2022/02/19 05:35:07;;;;;;;7.03;0.28;;;5.50;99.90;;;;;;5014597;28;20514;-73
2022/02/19 05:37:33;;;;;;;6.75;0.30;;;5.50;99.90;;;;;;5014578;28;20018;-74
2022/02/19 05:39:59;;;;;;;10.75;0.28;;;5.50;99.90;;;;;;5014901;28;20025;-75
2022/02/19 05:42:25;;;;;;;8.63;0.00;;;5.40;99.90;;;;;;5014566;28;20217;-74
2022/02/19 05:44:51;;;;;;;11.90;0.10;;;5.40;99.90;;;;;;5014421;28;20502;-75
2022/02/19 05:47:18;;;;;;;6.63;0.30;;;5.40;99.90;;;;;;5014001;28;20033;-73
2022/02/19 05:49:45;;;;;;;7.78;0.20;;;5.50;99.90;;;;;;5013822;28;20109;-73
2022/02/19 05:52:10;;;;;;;11.30;0.68;;;5.50;99.90;;;;;;5014267;28;20033;-73
2022/02/19 05:54:36;;;;;;;5.60;0.05;;;5.40;99.90;;;;;;5014268;28;20372;-73
2022/02/19 05:57:02;;;;;;;4.25;0.57;;;5.40;99.90;;;;;;4996583;28;20018;-73
2022/02/19 05:59:27;;;;;;;10.73;0.63;;;5.50;99.90;;;;;;5014207;28;20030;-73
2022/02/19 06:01:53;;;;;;;5.97;0.50;;;5.50;99.90;;;;;;5014299;28;20104;-73
2022/02/19 06:04:18;;;;;;;7.90;0.55;;;5.40;99.90;;;;;;4995824;28;20026;-74
2022/02/19 06:06:44;;;;;;;16.02;0.52;;;5.40;99.90;;;;;;4996649;28;20054;-73
2022/02/19 06:09:09;;;;;;;6.75;0.10;;;5.40;99.90;;;;;;4996435;28;20455;-74
2022/02/19 06:11:35;;;;;;;9.38;0.20;;;5.40;99.90;;;;;;5013665;28;20377;-74
2022/02/19 06:14:01;;;;;;;3.60;0.22;;;5.40;99.90;;;;;;5013925;28;20101;-73
2022/02/19 06:16:26;;;;;;;5.85;0.88;;;5.40;99.90;;;;;;5014083;28;20028;-74
2022/02/19 06:18:52;;;;;;;8.70;0.98;;;5.40;99.90;;;;;;5014174;28;20025;-73
2022/02/19 06:21:17;;;;;;;4.20;0.40;;;5.40;99.90;;;;;;5013869;28;20502;-74
2022/02/19 06:23:43;;;;;;;4.68;0.40;;;5.40;99.90;;;;;;4996052;28;20014;-73
2022/02/19 06:26:08;;;;;;;8.43;0.63;;;5.50;99.90;;;;;;5014082;28;20378;-75
2022/02/19 06:28:34;;;;;;;7.82;0.00;;;5.40;99.90;;;;;;4996235;28;20025;-74
2022/02/19 06:30:59;;;;;;;13.43;0.60;;;5.40;99.90;;;;;;4995997;28;20017;-74
2022/02/19 06:33:25;;;;;;;7.35;1.13;;;5.40;99.90;;;;;;4996304;28;20112;-74
2022/02/19 06:35:51;;;;;;;4.07;0.65;;;5.40;99.90;;;;;;5013696;28;20382;-74
2022/02/19 06:38:16;;;;;;;10.48;0.65;;;5.40;99.90;;;;;;4995792;28;20109;-75
2022/02/19 06:40:42;;;;;;;7.43;0.00;;;5.40;99.90;;;;;;4995960;28;20014;-74
2022/02/19 06:43:07;;;;;;;6.97;0.22;;;5.40;99.90;;;;;;4995861;28;20068;-74
2022/02/19 06:45:33;;;;;;;11.30;0.30;;;5.40;99.90;;;;;;5013555;28;20022;-74
2022/02/19 06:47:59;;;;;;;4.90;0.35;;;5.40;99.90;;;;;;5013491;28;20498;-74
2022/02/19 06:50:24;;;;;;;2.67;0.15;;;5.40;99.90;;;;;;5013638;28;20026;-74
2022/02/19 06:52:51;;;;;;;7.30;1.23;;;5.40;99.90;;;;;;4995965;28;20385;-73
2022/02/19 06:55:16;;;;;;;6.05;0.10;;;5.40;99.90;;;;;;4995855;28;20479;-74
2022/02/19 06:57:46;;;;;;;9.02;0.90;;;5.40;99.90;;;;;;5013344;28;20121;-73
2022/02/19 07:00:12;;;;;;;6.18;0.43;;;5.40;99.90;;;;;;4995854;28;20168;-74
2022/02/19 07:02:38;;;;;;;3.30;0.10;;;5.50;99.90;;;;;;5013397;28;20037;-73
2022/02/19 07:05:04;;;;;;;13.88;0.65;;;5.40;99.90;;;;;;4995736;28;20026;-74
2022/02/19 07:07:30;;;;;;;8.23;0.73;;;5.50;99.90;;;;;;5013022;28;20049;-73
2022/02/19 07:09:55;;;;;;;9.88;0.82;;;5.50;99.90;;;;;;5013357;28;20041;-73
2022/02/19 07:12:21;;;;;;;11.25;0.35;;;5.50;99.90;;;;;;5013446;28;20103;-74
2022/02/19 07:14:46;;;;;;;10.00;0.65;;;5.50;99.90;;;;;;5013212;28;20188;-74
2022/02/19 07:17:13;;;;;;;4.57;0.20;;;5.50;99.90;;;;;;4995676;28;20021;-74
2022/02/19 07:19:38;;;;;;;4.63;0.00;;;5.50;99.90;;;;;;4995693;28;20018;-73
2022/02/19 07:22:04;;;;;;;7.00;0.90;;;5.50;99.90;;;;;;5012786;28;20024;-73
2022/02/19 07:24:30;;;;;;;9.82;0.10;;;5.50;99.90;;;;;;5014273;28;20056;-75
2022/02/19 07:26:56;;;;;;;6.45;0.45;;;5.50;99.90;;;;;;4997330;28;20026;-74
2022/02/19 07:29:23;;;;;;;11.15;0.82;;;5.40;99.90;;;;;;5016937;28;20036;-74
2022/02/19 07:31:49;;;;;;;5.55;0.20;;;5.50;99.90;;;;;;5017467;28;20054;-74
2022/02/19 07:34:15;;;;;;;6.43;0.30;;;5.50;99.90;;;;;;4999350;28;20022;-73
2022/02/19 07:36:41;;;;;;;7.60;0.60;;;5.50;99.90;;;;;;4999320;28;20387;-73
2022/02/19 07:39:08;;;;;;;7.72;0.05;;;5.50;99.90;;;;;;4999447;28;20033;-73
2022/02/19 07:41:34;;;;;;;11.45;0.63;;;5.50;99.90;;;;;;5016766;28;20037;-73
2022/02/19 07:44:00;;;;;;;2.35;0.55;;;5.50;99.90;;;;;;5016643;28;20030;-73
2022/02/19 07:46:26;;;;;;;2.00;0.00;;;5.50;99.90;;;;;;4999368;28;20034;-73
2022/02/19 07:48:51;;;;;;;13.80;0.55;;;5.50;99.90;;;;;;4999121;28;20028;-74
2022/02/19 07:59:31;;;;;;;3.85;0.00;;;5.60;99.90;;;;;;4966989;28;20034;-74
2022/02/19 08:01:56;;;;;;;4.45;0.03;;;5.60;99.90;;;;;;5016397;28;20026;-72
2022/02/19 08:04:22;;;;;;;6.30;0.85;;;5.70;99.90;;;;;;5016122;28;20395;-73
2022/02/19 08:06:48;;;;;;;8.30;0.10;;;5.70;99.90;;;;;;5017173;28;20018;-74
2022/02/19 08:09:13;;;;;;;1.98;0.10;;;5.70;99.90;;;;;;4998698;28;20033;-74
2022/02/19 08:11:39;;;;;;;6.13;0.05;;;5.80;99.90;;;;;;5016347;28;20430;-74
2022/02/19 08:14:06;;;;;;;6.70;0.50;;;5.80;99.90;;;;;;5016133;28;20026;-74
2022/02/19 08:16:31;;;;;;;4.57;0.57;;;5.80;99.90;;;;;;5016463;28;20036;-75
2022/02/19 08:18:58;;;;;;;10.30;0.13;;;5.80;99.90;;;;;;5016554;28;20030;-75
2022/02/19 08:21:24;;;;;;;9.43;0.03;;;5.80;99.90;;;;;;5016612;28;20029;-75
2022/02/19 08:23:50;;;;;;;8.20;0.30;;;5.80;99.90;;;;;;4998203;28;20029;-75
2022/02/19 08:26:23;;;;;;;7.32;0.10;;;5.70;99.90;;;;;;5016504;28;20422;-76
2022/02/19 08:28:48;;;;;;;9.70;0.95;;;5.70;99.90;;;;;;4998787;28;20017;-74
2022/02/19 08:31:14;;;;;;;8.43;0.35;;;5.60;99.90;;;;;;5016395;28;20040;-74
2022/02/19 08:33:40;;;;;;;10.20;1.08;;;5.60;99.90;;;;;;5016101;28;20096;-74
2022/02/19 08:36:06;;;;;;;8.52;0.68;;;5.60;99.90;;;;;;5015382;28;20057;-74
2022/02/19 08:38:32;;;;;;;10.48;0.20;;;5.80;99.90;;;;;;5014876;28;20017;-74
2022/02/19 08:40:58;;;;;;;6.88;1.20;;;5.80;99.90;;;;;;5016057;28;20026;-74
2022/02/19 08:43:23;;;;;;;3.75;0.08;;;5.90;99.90;;;;;;4998097;28;20032;-74
2022/02/19 08:45:49;;;;;;;6.78;0.10;;;6.00;99.90;;;;;;4998298;28;20112;-76
2022/02/19 08:48:14;;;;;;;13.43;0.85;;;6.10;99.90;;;;;;5015770;28;20123;-75
2022/02/19 08:50:40;;;;;;;6.80;0.63;;;6.20;99.90;;;;;;5016083;28;20112;-74
2022/02/19 08:53:06;;;;;;;8.38;0.73;;;6.30;99.90;;;;;;4997926;28;20032;-74
2022/02/19 08:55:32;;;;;;;12.40;0.43;;;6.40;99.90;;;;;;5015916;28;20416;-75
2022/02/19 08:57:58;;;;;;;4.68;0.08;;;6.30;99.90;;;;;;4997704;28;20037;-74
2022/02/19 09:00:24;;;;;;;11.35;0.47;;;6.30;99.90;;;;;;4997928;28;20430;-75
2022/02/19 09:02:50;;;;;;;11.30;0.57;;;6.50;99.90;;;;;;4997890;28;20014;-75
2022/02/19 09:05:17;;;;;;;3.50;0.45;;;6.60;99.90;;;;;;5015685;28;20419;-74
2022/02/19 09:07:43;;;;;;;9.65;0.25;;;6.60;99.90;;;;;;5015393;28;20061;-75
2022/02/19 09:10:13;;;;;;;4.18;0.00;;;6.50;99.90;;;;;;5015350;28;20101;-76
2022/02/19 09:12:45;;;;;;;7.07;0.10;;;6.10;99.90;;;;;;5014625;28;20021;-74
2022/02/19 09:15:12;;;;;;;1.60;0.00;;;6.70;99.90;;;;;;4997248;28;20080;-74
2022/02/19 09:17:37;;;;;;;4.40;0.10;;;6.80;99.90;;;;;;5015410;28;20056;-74
2022/02/19 09:20:03;;;;;;;5.13;0.10;;;6.80;99.90;;;;;;5014804;28;20015;-74
2022/02/19 09:22:29;;;;;;;9.90;0.20;;;6.80;99.90;;;;;;5014802;28;20041;-75
2022/02/19 09:24:54;;;;;;;5.00;0.08;;;6.80;99.90;;;;;;5015075;28;20018;-73
2022/02/19 09:27:20;;;;;;;17.58;1.52;;;6.90;99.90;;;;;;4997568;28;20076;-71
2022/02/19 09:29:45;;;;;;;7.22;0.00;;;6.90;99.90;;;;;;4996869;28;20391;-71
2022/02/19 09:32:11;;;;;;;11.55;0.32;;;7.00;99.90;;;;;;5014801;28;20036;-72
2022/02/19 09:34:37;;;;;;;6.60;0.05;;;6.90;99.90;;;;;;5014768;28;20189;-73
2022/02/19 09:37:03;;;;;;;7.45;0.40;;;7.00;99.90;;;;;;5014773;28;20084;-73
2022/02/19 09:39:29;;;;;;;8.00;0.22;;;6.90;99.90;;;;;;5014316;28;20444;-73
2022/02/19 09:41:59;;;;;;;4.90;0.30;;;6.90;99.90;;;;;;5014940;28;20037;-75
2022/02/19 09:44:25;;;;;;;17.52;0.70;;;7.00;99.90;;;;;;4996559;28;20052;-73
2022/02/19 09:46:53;;;;;;;6.38;0.10;;;7.10;99.90;;;;;;5015041;28;20038;-74
2022/02/19 09:49:20;;;;;;;4.40;0.03;;;7.20;99.90;;;;;;4996631;28;20060;-74
2022/02/19 09:51:46;;;;;;;7.35;0.00;;;7.30;99.90;;;;;;5014581;28;20368;-73
2022/02/19 09:54:11;;;;;;;6.22;0.00;;;7.30;99.90;;;;;;5014371;28;20029;-73
2022/02/19 09:56:37;;;;;;;5.65;0.00;;;7.40;99.90;;;;;;5014079;28;20029;-73
2022/02/19 09:59:06;;;;;;;8.18;0.35;;;7.40;99.90;;;;;;5014851;28;20030;-73
2022/02/19 10:01:32;;;;;;;6.50;0.20;;;7.50;98.30;;;;;;5014241;28;20069;-74
2022/02/19 10:04:03;;;;;;;7.47;0.52;;;7.60;98.30;;;;;;5014228;28;20109;-74
2022/02/19 10:06:34;;;;;;;3.25;0.45;;;7.60;96.40;;;;;;5014678;28;20029;-75
2022/02/19 10:09:13;;;;;;;2.75;0.15;;;7.60;99.90;;;;;;5013950;28;20038;-76
2022/02/19 10:11:39;;;;;;;8.20;1.27;;;7.70;99.20;;;;;;4996016;28;20030;-73
2022/02/19 10:14:31;;;;;;;4.10;0.20;;;7.70;98.30;;;;;;5014222;28;20034;-73
2022/02/19 10:17:17;;;;;;;7.50;0.65;;;7.60;99.90;;;;;;5014100;28;20032;-74
2022/02/19 10:19:56;;;;;;;8.77;0.57;;;7.70;98.90;;;;;;4996175;28;20044;-74
2022/02/19 10:22:41;;;;;;;4.53;0.00;;;7.70;97.60;;;;;;4996348;28;20479;-74
2022/02/19 10:25:09;;;;;;;2.65;0.00;;;7.60;96.10;;;;;;4996320;28;20029;-73
2022/02/19 10:27:51;;;;;;;12.00;0.55;;;7.60;96.10;;;;;;5013974;28;20026;-73
2022/02/19 10:30:20;;;;;;;5.53;1.00;;;7.50;97.60;;;;;;5013903;28;20028;-74
2022/02/19 10:33:07;;;;;;;5.78;0.15;;;7.40;97.90;;;;;;4995743;28;20114;-74
2022/02/19 10:35:42;;;;;;;7.97;0.43;;;7.50;98.30;;;;;;5013715;28;20112;-75
2022/02/19 10:38:11;;;;;;;6.22;0.28;;;7.50;99.50;;;;;;4996099;28;20029;-74
2022/02/19 10:40:43;;;;;;;3.03;0.10;;;7.60;99.10;;;;;;4996161;28;20018;-75
2022/02/19 10:43:17;;;;;;;6.15;0.22;;;7.40;99.70;;;;;;5013983;28;20042;-74
2022/02/19 10:45:59;;;;;;;7.75;0.77;;;7.40;99.90;;;;;;5013671;28;20029;-76
2022/02/19 10:48:34;;;;;;;4.85;0.15;;;7.60;99.90;;;;;;4996005;28;20022;-75
2022/02/19 10:51:08;;;;;;;3.20;0.00;;;7.80;99.90;;;;;;5013894;28;20056;-74
2022/02/19 10:53:36;;;;;;;2.08;0.00;;;8.20;99.00;;;;;;5013443;28;20033;-75
2022/02/19 10:56:18;;;;;;;3.00;0.00;;;8.30;95.20;;;;;;5013971;28;20434;-75
2022/02/19 10:59:05;;;;;;;9.10;0.00;;;8.50;94.30;;;;;;4996282;28;20018;-75
2022/02/19 11:01:46;;;;;;;4.82;0.05;;;8.40;95.10;;;;;;5014662;28;20032;-75
2022/02/19 11:04:14;;;;;;;4.45;0.00;;;8.50;95.80;;;;;;5018070;28;20034;-74
2022/02/19 11:06:40;;;;;;;6.15;0.00;;;8.50;95.00;;;;;;5000335;28;20021;-75
2022/02/19 11:09:07;;;;;;;4.40;0.25;;;8.50;94.40;;;;;;5017724;28;20026;-75
2022/02/19 11:11:35;;;;;;;5.78;0.35;;;8.60;94.90;;;;;;5017327;28;20028;-75
2022/02/19 11:14:04;;;;;;;7.00;0.73;;;8.70;96.30;;;;;;5017686;28;20029;-76
2022/02/19 11:16:32;;;;;;;2.53;0.28;;;8.70;94.50;;;;;;5017540;28;20054;-75
2022/02/19 11:18:59;;;;;;;9.35;0.43;;;8.60;93.80;;;;;;5000096;28;20391;-75
2022/02/19 11:21:26;;;;;;;5.43;0.10;;;8.50;92.60;;;;;;5017692;28;20029;-76
2022/02/19 11:23:54;;;;;;;8.85;0.90;;;8.10;94.60;;;;;;5017236;28;20021;-75
2022/02/19 11:26:22;;;;;;;14.10;0.68;;;7.70;98.40;;;;;;5017347;28;20033;-75
2022/02/19 11:28:49;;;;;;;9.30;1.73;;;7.60;99.90;;;;;;4999534;28;20117;-74
2022/02/19 11:31:16;;;;;;;14.07;0.15;;;7.60;99.90;;;;;;4999477;28;20022;-74
2022/02/19 11:33:45;;;;;;;18.52;3.95;;;7.80;99.90;;;;;;5017277;28;20395;-76
2022/02/19 11:36:11;;;;;;;;;;;8.00;99.90;;;;;;5017064;28;20395;-75
2022/02/19 11:38:48;;;;;;;11.05;0.77;;;8.20;99.90;;;;;;5017267;28;20291;-74
2022/02/19 11:41:16;;;;;;;5.07;0.80;;;8.60;99.90;;;;;;5017348;28;20418;-75
2022/02/19 11:43:46;;;;;;;8.10;0.55;;;8.60;97.70;;;;;;4999222;28;20030;-75
2022/02/19 11:46:15;;;;;;;7.03;0.63;;;8.70;98.50;;;;;;5016953;28;20030;-74
2022/02/19 11:48:42;;;;;;;2.53;0.00;;;8.70;95.60;;;;;;5017496;28;20026;-74
2022/02/19 11:51:20;;;;;;;8.07;0.40;;;8.80;97.60;;;;;;4998679;28;20105;-73
2022/02/19 11:53:48;;;;;;;10.65;0.85;;;8.90;96.60;;;;;;5016371;28;20114;-74
2022/02/19 11:56:35;;;;;;;7.85;0.10;;;8.80;94.40;;;;;;4999512;28;20061;-74
2022/02/19 11:59:02;;;;;;;6.80;0.85;;;8.70;97.30;;;;;;4999019;28;20133;-75
2022/02/19 12:01:31;;;;;;;6.88;0.25;;;8.50;96.50;;;;;;4999051;28;20022;-75
2022/02/19 12:04:09;;;;;;;3.45;0.30;;;8.40;94.60;;;;;;4997804;28;20034;-74
2022/02/19 12:06:38;;;;;;;5.93;0.15;;;8.30;94.30;;;;;;5016347;28;20498;-74
2022/02/19 12:09:05;;;;;;;4.88;0.03;;;8.40;93.00;;;;;;4999098;28;20037;-74
2022/02/19 12:11:31;;;;;;;9.20;0.45;;;8.50;95.00;;;;;;5016762;28;20506;-74
2022/02/19 12:14:00;;;;;;;6.97;0.52;;;8.60;90.00;;;;;;5016484;28;20018;-74
2022/02/19 12:16:28;;;;;;;;;;;8.70;91.00;;;;;;5016539;28;20026;-74
2022/02/19 12:18:56;;;;;;;6.03;0.00;;;8.90;91.80;;;;;;4998852;28;20004;-74
2022/02/19 12:21:42;;;;;;;9.70;1.50;;;9.00;86.40;;;;;;5016876;28;20025;-74
2022/02/19 12:24:16;;;;;;;7.05;0.20;;;9.00;80.80;;;;;;4998538;28;20072;-74
2022/02/19 12:26:57;;;;;;;6.45;0.45;;;9.00;83.80;;;;;;4998681;28;20387;-74
2022/02/19 12:29:31;;;;;;;13.30;1.33;;;9.00;86.30;;;;;;5016446;28;20495;-75
2022/02/19 12:32:05;;;;;;;4.63;0.00;;;9.00;87.50;;;;;;4996966;28;20042;-75
2022/02/19 12:34:33;;;;;;;14.02;1.67;;;8.90;85.80;;;;;;4996523;28;20161;-75
2022/02/19 12:36:59;;;;;;;3.92;0.70;;;9.00;87.10;;;;;;4996759;28;20492;-74
2022/02/19 12:39:26;;;;;;;5.82;0.00;;;9.10;83.40;;;;;;4996203;28;20081;-75
2022/02/19 12:41:58;;;;;;;10.10;0.70;;;9.20;89.70;;;;;;4996694;28;20042;-75
2022/02/19 12:44:24;;;;;;;9.05;1.20;;;9.20;79.90;;;;;;4997552;28;20061;-75
2022/02/19 12:46:55;;;;;;;6.70;0.10;;;9.30;82.30;;;;;;5015982;28;20037;-74
2022/02/19 12:49:23;;;;;;;7.13;0.32;;;9.20;80.40;;;;;;4998299;28;20025;-74
2022/02/19 12:51:57;;;;;;;4.30;0.35;;;9.10;81.40;;;;;;5016080;28;20025;-74
2022/02/19 12:54:37;;;;;;;3.15;0.00;;;9.00;85.20;;;;;;5015379;28;20033;-75
2022/02/19 12:57:06;;;;;;;5.00;0.73;;;11.80;89.40;;;;;;4997738;28;20058;-74
2022/02/19 12:59:33;;;;;;;2.63;0.35;;;8.80;89.50;;;;;;5015750;28;20033;-74
2022/02/19 13:02:01;;;;;;;8.27;0.45;;;8.60;91.10;;;;;;5015326;28;20064;-74
2022/02/19 13:04:35;;;;;;;4.30;0.50;;;8.50;92.50;;;;;;5015129;28;20064;-75